PWSweather.com
Personal Weather Stations
Station Observations
GRD01
Warsaw, LesznoPL 05-084

WarsawLesznoPL 05-084

Lat: 52.257404, Lon: 20.564847

Elevation: 298

Station Type: WH3080

http://pogoda.kampinos.waw.pl

High Low Average
Temperature 61.3°F16.3°C 56.7°F13.7°C 59.2°F15.1°C
Dew Point 59.6°F15.3°C 53.2°F11.8°C 56.3°F13.5°C
Winds 6.9 mph 11.1 kmh Calm Calm 2.0 mph SW3.2 kmh SW
Wind Gusts 10.7 mph17.2 kmh 1.6 mph2.6 kmh 5.0 mph8.0 kmh
Humidity 96% 81% 90%
Pressure 30.57 in1035.2 mb 30.45 in1031.2 mb -
Precipitation 0.39 in9.9 mm - -
Hour Temp Dew Point Humidity Winds Wind Gusts Pressure Precip Precip Rate Daily Precip Total
12:00 AM 61.2°F16.2°C 58.8°F14.9°C 92% Calm Calm 3.1 mph5.0 kmh 30.46 in1031.5 mb 0.00 in0.0 mm 0.00 in0.0 mm 0.00 in0.0 mm
12:10 AM 61.3°F16.3°C 59.0°F15.0°C 92% 0.7 mph S1.1 kmh S 1.6 mph2.6 kmh 30.02 in1016.6 mb 0.00 in0.0 mm 0.00 in0.0 mm 0.01 in0.3 mm
12:15 AM 61.3°F16.3°C 59.0°F15.0°C 92% Calm Calm 1.6 mph2.6 kmh 30.46 in1031.5 mb 0.00 in0.0 mm 0.00 in0.0 mm 0.00 in0.0 mm
12:30 AM 61.3°F16.3°C 59.3°F15.2°C 93% Calm Calm 2.2 mph3.5 kmh 30.47 in1031.8 mb 0.00 in0.0 mm 0.00 in0.0 mm 0.00 in0.0 mm
12:40 AM 61.3°F16.3°C 59.3°F15.2°C 93% 1.6 mph SW2.6 kmh SW 3.1 mph5.0 kmh 30.02 in1016.6 mb 0.00 in0.0 mm 0.00 in0.0 mm 0.01 in0.3 mm
12:45 AM 61.3°F16.3°C 59.3°F15.2°C 93% 1.6 mph S2.6 kmh S 2.2 mph3.5 kmh 30.46 in1031.5 mb 0.00 in0.0 mm 0.00 in0.0 mm 0.00 in0.0 mm
01:00 AM 61.2°F16.2°C 59.1°F15.1°C 93% 1.6 mph SW2.6 kmh SW 4.5 mph7.2 kmh 30.47 in1031.8 mb 0.00 in0.0 mm 0.00 in0.0 mm 0.00 in0.0 mm
01:10 AM 61.2°F16.2°C 59.1°F15.1°C 93% 1.6 mph SW2.6 kmh SW 3.1 mph5.0 kmh 30.02 in1016.6 mb 0.00 in0.0 mm 0.00 in0.0 mm 0.01 in0.3 mm
01:15 AM 61.3°F16.3°C 59.3°F15.2°C 93% 2.2 mph SSW3.5 kmh SSW 4.5 mph7.2 kmh 30.46 in1031.5 mb 0.00 in0.0 mm 0.00 in0.0 mm 0.00 in0.0 mm
01:30 AM 61.3°F16.3°C 59.6°F15.3°C 94% 1.6 mph SSW2.6 kmh SSW 3.8 mph6.1 kmh 30.46 in1031.5 mb 0.00 in0.0 mm 0.00 in0.0 mm 0.00 in0.0 mm
01:40 AM 61.3°F16.3°C 59.6°F15.3°C 94% 1.6 mph S2.6 kmh S 2.2 mph3.5 kmh 30.02 in1016.6 mb 0.00 in0.0 mm 0.00 in0.0 mm 0.01 in0.3 mm
01:45 AM 61.2°F16.2°C 59.4°F15.2°C 94% Calm Calm 3.1 mph5.0 kmh 30.46 in1031.5 mb 0.00 in0.0 mm 0.00 in0.0 mm 0.00 in0.0 mm
02:00 AM 61.2°F16.2°C 59.4°F15.2°C 94% 1.6 mph SW2.6 kmh SW 3.8 mph6.1 kmh 30.46 in1031.5 mb 0.00 in0.0 mm 0.00 in0.0 mm 0.00 in0.0 mm
02:10 AM 61.2°F16.2°C 59.4°F15.2°C 94% 0.7 mph SW1.1 kmh SW 2.2 mph3.5 kmh 30.02 in1016.6 mb 0.00 in0.0 mm 0.00 in0.0 mm 0.01 in0.3 mm
02:15 AM 61.0°F16.1°C 59.2°F15.1°C 94% 3.1 mph SSW5.0 kmh SSW 5.4 mph8.7 kmh 30.46 in1031.5 mb 0.00 in0.0 mm 0.00 in0.0 mm 0.00 in0.0 mm
02:30 AM 60.8°F16.0°C 59.1°F15.1°C 94% 3.1 mph SSW5.0 kmh SSW 6.9 mph11.1 kmh 30.47 in1031.8 mb 0.00 in0.0 mm 0.00 in0.0 mm 0.00 in0.0 mm
02:40 AM 60.8°F16.0°C 59.1°F15.1°C 94% 3.1 mph S5.0 kmh S 5.4 mph8.7 kmh 30.02 in1016.6 mb 0.00 in0.0 mm 0.00 in0.0 mm 0.01 in0.3 mm
02:45 AM 60.6°F15.9°C 58.9°F14.9°C 94% 0.7 mph S1.1 kmh S 6.0 mph9.7 kmh 30.46 in1031.5 mb 0.00 in0.0 mm 0.00 in0.0 mm 0.00 in0.0 mm
03:00 AM 60.4°F15.8°C 58.7°F14.8°C 94% 2.2 mph SSW3.5 kmh SSW 5.4 mph8.7 kmh 30.46 in1031.5 mb 0.00 in0.0 mm 0.00 in0.0 mm 0.00 in0.0 mm
03:10 AM 60.4°F15.8°C 58.7°F14.8°C 94% 3.8 mph SW6.1 kmh SW 5.4 mph8.7 kmh 30.02 in1016.6 mb 0.00 in0.0 mm 0.00 in0.0 mm 0.01 in0.3 mm
03:15 AM 60.3°F15.7°C 58.5°F14.7°C 94% Calm Calm 5.4 mph8.7 kmh 30.46 in1031.5 mb 0.00 in0.0 mm 0.00 in0.0 mm 0.00 in0.0 mm
03:30 AM 60.1°F15.6°C 58.3°F14.6°C 94% 0.7 mph S1.1 kmh S 5.4 mph8.7 kmh 30.46 in1031.5 mb 0.00 in0.0 mm 0.00 in0.0 mm 0.00 in0.0 mm
03:40 AM 60.1°F15.6°C 58.3°F14.6°C 94% 5.4 mph SE8.7 kmh SE 6.0 mph9.7 kmh 30.02 in1016.6 mb 0.00 in0.0 mm 0.00 in0.0 mm 0.01 in0.3 mm
03:45 AM 59.9°F15.5°C 58.2°F14.6°C 94% 0.7 mph SW1.1 kmh SW 4.5 mph7.2 kmh 30.46 in1031.5 mb 0.00 in0.0 mm 0.00 in0.0 mm 0.00 in0.0 mm
04:00 AM 59.5°F15.3°C 57.8°F14.3°C 94% 3.1 mph S5.0 kmh S 4.5 mph7.2 kmh 30.46 in1031.5 mb 0.00 in0.0 mm 0.00 in0.0 mm 0.00 in0.0 mm
04:10 AM 59.5°F15.3°C 57.8°F14.3°C 94% 3.8 mph W6.1 kmh W 4.5 mph7.2 kmh 30.02 in1016.6 mb 0.00 in0.0 mm 0.00 in0.0 mm 0.01 in0.3 mm
04:15 AM 59.2°F15.1°C 57.5°F14.2°C 94% 0.7 mph SW1.1 kmh SW 3.8 mph6.1 kmh 30.45 in1031.2 mb 0.00 in0.0 mm 0.00 in0.0 mm 0.00 in0.0 mm
04:30 AM 59.2°F15.1°C 57.5°F14.2°C 94% 1.6 mph WSW2.6 kmh WSW 3.1 mph5.0 kmh 30.46 in1031.5 mb 0.00 in0.0 mm 0.00 in0.0 mm 0.00 in0.0 mm
04:40 AM 59.2°F15.1°C 57.5°F14.2°C 94% 1.6 mph S2.6 kmh S 3.1 mph5.0 kmh 30.02 in1016.6 mb 0.00 in0.0 mm 0.00 in0.0 mm 0.01 in0.3 mm
04:45 AM 59.0°F15.0°C 57.3°F14.1°C 94% 2.2 mph W3.5 kmh W 5.4 mph8.7 kmh 30.46 in1031.5 mb 0.00 in0.0 mm 0.00 in0.0 mm 0.00 in0.0 mm
05:00 AM 58.8°F14.9°C 57.1°F13.9°C 94% 0.7 mph SW1.1 kmh SW 3.8 mph6.1 kmh 30.46 in1031.5 mb 0.00 in0.0 mm 0.00 in0.0 mm 0.00 in0.0 mm
05:10 AM 58.8°F14.9°C 57.1°F13.9°C 94% 1.6 mph W2.6 kmh W 3.1 mph5.0 kmh 30.02 in1016.6 mb 0.00 in0.0 mm 0.00 in0.0 mm 0.01 in0.3 mm
05:15 AM 58.5°F14.7°C 56.7°F13.7°C 94% 3.8 mph SSW6.1 kmh SSW 4.5 mph7.2 kmh 30.48 in1032.2 mb 0.00 in0.0 mm 0.00 in0.0 mm 0.00 in0.0 mm
05:30 AM 58.1°F14.5°C 56.1°F13.4°C 93% 0.7 mph SW1.1 kmh SW 4.5 mph7.2 kmh 30.48 in1032.2 mb 0.00 in0.0 mm 0.00 in0.0 mm 0.00 in0.0 mm
05:40 AM 58.1°F14.5°C 56.1°F13.4°C 93% 0.7 mph SW1.1 kmh SW 1.6 mph2.6 kmh 30.03 in1016.9 mb 0.00 in0.0 mm 0.00 in0.0 mm 0.01 in0.3 mm
05:45 AM 57.9°F14.4°C 55.9°F13.3°C 93% 3.1 mph WSW5.0 kmh WSW 6.9 mph11.1 kmh 30.48 in1032.2 mb 0.00 in0.0 mm 0.00 in0.0 mm 0.00 in0.0 mm
06:00 AM 57.7°F14.3°C 55.7°F13.2°C 93% 3.1 mph WNW5.0 kmh WNW 3.8 mph6.1 kmh 30.48 in1032.2 mb 0.00 in0.0 mm 0.00 in0.0 mm 0.00 in0.0 mm
06:10 AM 57.7°F14.3°C 55.7°F13.2°C 93% 3.1 mph NW5.0 kmh NW 3.8 mph6.1 kmh 30.03 in1016.9 mb 0.00 in0.0 mm 0.00 in0.0 mm 0.01 in0.3 mm
06:15 AM 57.7°F14.3°C 55.7°F13.2°C 93% 1.6 mph NW2.6 kmh NW 3.1 mph5.0 kmh 30.48 in1032.2 mb 0.01 in0.3 mm 0.12 in3.0 mm 0.01 in0.3 mm
06:30 AM 57.7°F14.3°C 55.7°F13.2°C 93% 0.7 mph WSW1.1 kmh WSW 3.8 mph6.1 kmh 30.48 in1032.2 mb 0.02 in0.5 mm 0.04 in1.0 mm 0.02 in0.5 mm
06:40 AM 57.7°F14.3°C 55.7°F13.2°C 93% 0.7 mph W1.1 kmh W 1.6 mph2.6 kmh 30.04 in1017.3 mb 0.02 in0.5 mm 0.00 in0.0 mm 0.04 in1.0 mm
06:45 AM 57.6°F14.2°C 55.6°F13.1°C 93% 4.5 mph NW7.2 kmh NW 7.6 mph12.2 kmh 30.46 in1031.5 mb 0.04 in1.0 mm 0.24 in6.1 mm 0.04 in1.0 mm
07:00 AM 57.4°F14.1°C 55.4°F13.0°C 93% 5.4 mph NNW8.7 kmh NNW 7.6 mph12.2 kmh 30.47 in1031.8 mb 0.05 in1.3 mm 0.01 in0.3 mm 0.05 in1.3 mm
07:10 AM 57.2°F14.0°C 55.2°F12.9°C 93% 1.6 mph NW2.6 kmh NW 3.1 mph5.0 kmh 30.02 in1016.6 mb 0.05 in1.3 mm 0.00 in0.0 mm 0.06 in1.5 mm
07:15 AM 57.2°F14.0°C 55.2°F12.9°C 93% 3.8 mph WSW6.1 kmh WSW 6.0 mph9.7 kmh 30.47 in1031.8 mb 0.05 in1.3 mm 0.00 in0.0 mm 0.06 in1.5 mm
07:30 AM 57.0°F13.9°C 55.0°F12.8°C 93% 1.6 mph WNW2.6 kmh WNW 6.0 mph9.7 kmh 30.48 in1032.2 mb 0.06 in1.5 mm 0.04 in1.0 mm 0.08 in2.0 mm
07:40 AM 57.0°F13.9°C 55.0°F12.8°C 93% 0.7 mph W1.1 kmh W 2.2 mph3.5 kmh 30.04 in1017.3 mb 0.06 in1.5 mm 0.00 in0.0 mm 0.09 in2.3 mm
07:45 AM 57.0°F13.9°C 55.0°F12.8°C 93% Calm Calm 6.0 mph9.7 kmh 30.48 in1032.2 mb 0.09 in2.3 mm 0.36 in9.1 mm 0.13 in3.3 mm
08:00 AM 56.8°F13.8°C 55.1°F12.8°C 94% 1.6 mph NW2.6 kmh NW 5.4 mph8.7 kmh 30.48 in1032.2 mb 0.12 in3.0 mm 0.04 in1.0 mm 0.17 in4.3 mm
08:10 AM 56.8°F13.8°C 55.1°F12.8°C 94% 3.1 mph W5.0 kmh W 4.5 mph7.2 kmh 30.04 in1017.3 mb 0.12 in3.0 mm 0.00 in0.0 mm 0.18 in4.6 mm
08:15 AM 56.8°F13.8°C 55.1°F12.8°C 94% 1.6 mph SW2.6 kmh SW 4.5 mph7.2 kmh 30.49 in1032.5 mb 0.14 in3.6 mm 0.24 in6.1 mm 0.20 in5.1 mm
08:30 AM 56.8°F13.8°C 55.1°F12.8°C 94% 3.1 mph NW5.0 kmh NW 7.6 mph12.2 kmh 30.47 in1031.8 mb 0.17 in4.3 mm 0.12 in3.0 mm 0.25 in6.4 mm
08:40 AM 56.8°F13.8°C 55.1°F12.8°C 94% 3.8 mph N6.1 kmh N 5.4 mph8.7 kmh 30.03 in1016.9 mb 0.17 in4.3 mm 0.00 in0.0 mm 0.26 in6.6 mm
08:45 AM 57.0°F13.9°C 55.3°F12.9°C 94% 1.6 mph WSW2.6 kmh WSW 6.9 mph11.1 kmh 30.49 in1032.5 mb 0.13 in3.3 mm 0.00 in0.0 mm 0.26 in6.6 mm
09:00 AM 57.2°F14.0°C 55.5°F13.1°C 94% 2.2 mph NW3.5 kmh NW 6.0 mph9.7 kmh 30.48 in1032.2 mb 0.15 in3.8 mm 0.03 in0.8 mm 0.32 in8.1 mm
09:10 AM 57.2°F14.0°C 55.5°F13.1°C 94% 2.2 mph W3.5 kmh W 3.1 mph5.0 kmh 30.04 in1017.3 mb 0.15 in3.8 mm 0.00 in0.0 mm 0.33 in8.4 mm
09:15 AM 57.2°F14.0°C 55.8°F13.2°C 95% 5.4 mph W8.7 kmh W 6.9 mph11.1 kmh 30.48 in1032.2 mb 0.13 in3.3 mm 0.00 in0.0 mm 0.33 in8.4 mm
09:30 AM 57.4°F14.1°C 56.0°F13.3°C 95% 3.1 mph NNW5.0 kmh NNW 6.0 mph9.7 kmh 30.48 in1032.2 mb 0.09 in2.3 mm 0.00 in0.0 mm 0.34 in8.6 mm
09:40 AM 57.4°F14.1°C 56.0°F13.3°C 95% 3.1 mph SW5.0 kmh SW 4.5 mph7.2 kmh 30.04 in1017.3 mb 0.09 in2.3 mm 0.00 in0.0 mm 0.35 in8.9 mm
09:45 AM 57.6°F14.2°C 56.1°F13.4°C 95% 4.5 mph W7.2 kmh W 6.9 mph11.1 kmh 30.49 in1032.5 mb 0.09 in2.3 mm 0.00 in0.0 mm 0.35 in8.9 mm
10:00 AM 57.6°F14.2°C 56.1°F13.4°C 95% 3.8 mph NW6.1 kmh NW 6.0 mph9.7 kmh 30.49 in1032.5 mb 0.05 in1.3 mm 0.00 in0.0 mm 0.37 in9.4 mm
10:10 AM 57.6°F14.2°C 56.1°F13.4°C 95% 3.8 mph W6.1 kmh W 5.4 mph8.7 kmh 30.04 in1017.3 mb 0.05 in1.3 mm 0.00 in0.0 mm 0.38 in9.7 mm
10:15 AM 57.6°F14.2°C 56.1°F13.4°C 95% 3.1 mph WNW5.0 kmh WNW 6.0 mph9.7 kmh 30.49 in1032.5 mb 0.06 in1.5 mm 0.12 in3.0 mm 0.39 in9.9 mm
10:30 AM 57.6°F14.2°C 56.4°F13.6°C 96% 3.1 mph WNW5.0 kmh WNW 5.4 mph8.7 kmh 30.49 in1032.5 mb 0.05 in1.3 mm 0.00 in0.0 mm 0.39 in9.9 mm
10:40 AM 57.6°F14.2°C 56.4°F13.6°C 96% 3.8 mph NW6.1 kmh NW 5.4 mph8.7 kmh 30.05 in1017.6 mb 0.05 in1.3 mm 0.00 in0.0 mm 0.40 in10.2 mm
10:45 AM 58.1°F14.5°C 57.0°F13.9°C 96% 5.4 mph WNW8.7 kmh WNW 6.9 mph11.1 kmh 30.48 in1032.2 mb 0.04 in1.0 mm 0.00 in0.0 mm 0.39 in9.9 mm
11:00 AM 58.5°F14.7°C 57.3°F14.1°C 96% 3.1 mph NW5.0 kmh NW 5.4 mph8.7 kmh 30.49 in1032.5 mb 0.02 in0.5 mm 0.00 in0.0 mm 0.39 in9.9 mm
11:10 AM 58.5°F14.7°C 57.3°F14.1°C 96% 2.2 mph S3.5 kmh S 3.8 mph6.1 kmh 30.05 in1017.6 mb 0.02 in0.5 mm 0.00 in0.0 mm 0.40 in10.2 mm
11:15 AM 58.6°F14.8°C 57.5°F14.2°C 96% 2.2 mph NW3.5 kmh NW 6.0 mph9.7 kmh 30.50 in1032.8 mb 0.00 in0.0 mm 0.00 in0.0 mm 0.39 in9.9 mm
11:30 AM 58.6°F14.8°C 57.5°F14.2°C 96% 1.6 mph WSW2.6 kmh WSW 6.9 mph11.1 kmh 30.50 in1032.8 mb 0.00 in0.0 mm 0.00 in0.0 mm 0.39 in9.9 mm
11:40 AM 58.6°F14.8°C 57.5°F14.2°C 96% 3.1 mph SW5.0 kmh SW 5.4 mph8.7 kmh 30.06 in1017.9 mb 0.00 in0.0 mm 0.00 in0.0 mm 0.40 in10.2 mm
11:45 AM 58.6°F14.8°C 57.2°F14.0°C 95% 6.0 mph SW9.7 kmh SW 7.6 mph12.2 kmh 30.50 in1032.8 mb 0.00 in0.0 mm 0.00 in0.0 mm 0.39 in9.9 mm
12:00 PM 58.8°F14.9°C 57.4°F14.1°C 95% 0.7 mph SW1.1 kmh SW 7.6 mph12.2 kmh 30.51 in1033.2 mb 0.00 in0.0 mm 0.00 in0.0 mm 0.39 in9.9 mm
12:10 PM 58.8°F14.9°C 57.4°F14.1°C 95% 1.6 mph N2.6 kmh N 2.2 mph3.5 kmh 30.07 in1018.3 mb 0.00 in0.0 mm 0.00 in0.0 mm 0.40 in10.2 mm
12:15 PM 59.0°F15.0°C 57.3°F14.1°C 94% 5.4 mph SSW8.7 kmh SSW 6.9 mph11.1 kmh 30.51 in1033.2 mb 0.00 in0.0 mm 0.00 in0.0 mm 0.39 in9.9 mm
12:30 PM 59.2°F15.1°C 57.2°F14.0°C 93% 3.8 mph SW6.1 kmh SW 6.0 mph9.7 kmh 30.51 in1033.2 mb 0.00 in0.0 mm 0.00 in0.0 mm 0.39 in9.9 mm
12:40 PM 59.2°F15.1°C 57.2°F14.0°C 93% 3.8 mph SW6.1 kmh SW 5.4 mph8.7 kmh 30.06 in1017.9 mb 0.00 in0.0 mm 0.00 in0.0 mm 0.40 in10.2 mm
12:45 PM 59.9°F15.5°C 57.9°F14.4°C 93% 3.8 mph S6.1 kmh S 5.4 mph8.7 kmh 30.50 in1032.8 mb 0.00 in0.0 mm 0.00 in0.0 mm 0.39 in9.9 mm
01:00 PM 59.9°F15.5°C 57.6°F14.2°C 92% 3.1 mph SSW5.0 kmh SSW 5.4 mph8.7 kmh 30.52 in1033.5 mb 0.00 in0.0 mm 0.00 in0.0 mm 0.39 in9.9 mm
01:10 PM 59.9°F15.5°C 57.6°F14.2°C 92% 3.1 mph S5.0 kmh S 4.5 mph7.2 kmh 30.07 in1018.3 mb 0.00 in0.0 mm 0.00 in0.0 mm 0.40 in10.2 mm
01:15 PM 60.4°F15.8°C 57.8°F14.3°C 91% 1.6 mph SW2.6 kmh SW 5.4 mph8.7 kmh 30.52 in1033.5 mb 0.00 in0.0 mm 0.00 in0.0 mm 0.39 in9.9 mm
01:30 PM 60.8°F16.0°C 57.8°F14.3°C 90% 2.2 mph SSW3.5 kmh SSW 5.4 mph8.7 kmh 30.51 in1033.2 mb 0.00 in0.0 mm 0.00 in0.0 mm 0.39 in9.9 mm
01:40 PM 60.8°F16.0°C 57.8°F14.3°C 90% 1.6 mph S2.6 kmh S 2.2 mph3.5 kmh 30.07 in1018.3 mb 0.00 in0.0 mm 0.00 in0.0 mm 0.40 in10.2 mm
01:45 PM 60.8°F16.0°C 57.2°F14.0°C 88% 4.5 mph SSW7.2 kmh SSW 7.6 mph12.2 kmh 30.53 in1033.9 mb 0.00 in0.0 mm 0.00 in0.0 mm 0.39 in9.9 mm
02:00 PM 60.8°F16.0°C 56.9°F13.8°C 87% 3.8 mph SW6.1 kmh SW 6.9 mph11.1 kmh 30.53 in1033.9 mb 0.00 in0.0 mm 0.00 in0.0 mm 0.39 in9.9 mm
02:10 PM 60.8°F16.0°C 56.9°F13.8°C 87% 0.7 mph WSW1.1 kmh WSW 2.2 mph3.5 kmh 30.08 in1018.6 mb 0.00 in0.0 mm 0.00 in0.0 mm 0.40 in10.2 mm
02:15 PM 60.8°F16.0°C 56.6°F13.7°C 86% 3.8 mph SSW6.1 kmh SSW 6.9 mph11.1 kmh 30.53 in1033.9 mb 0.00 in0.0 mm 0.00 in0.0 mm 0.39 in9.9 mm
02:30 PM 60.4°F15.8°C 56.2°F13.4°C 86% 4.5 mph SSW7.2 kmh SSW 6.9 mph11.1 kmh 30.53 in1033.9 mb 0.00 in0.0 mm 0.00 in0.0 mm 0.39 in9.9 mm
02:40 PM 60.4°F15.8°C 56.2°F13.4°C 86% 4.5 mph SW7.2 kmh SW 5.4 mph8.7 kmh 30.09 in1019.0 mb 0.00 in0.0 mm 0.00 in0.0 mm 0.40 in10.2 mm
02:45 PM 60.6°F15.9°C 56.4°F13.6°C 86% 3.1 mph SSW5.0 kmh SSW 9.8 mph15.8 kmh 30.54 in1034.2 mb 0.00 in0.0 mm 0.00 in0.0 mm 0.39 in9.9 mm
03:00 PM 60.6°F15.9°C 56.4°F13.6°C 86% Calm Calm 6.0 mph9.7 kmh 30.53 in1033.9 mb 0.00 in0.0 mm 0.00 in0.0 mm 0.39 in9.9 mm
03:10 PM 60.6°F15.9°C 56.4°F13.6°C 86% 0.7 mph SW1.1 kmh SW 1.6 mph2.6 kmh 30.09 in1019.0 mb 0.00 in0.0 mm 0.00 in0.0 mm 0.40 in10.2 mm
03:15 PM 61.3°F16.3°C 56.8°F13.8°C 85% 1.6 mph SW2.6 kmh SW 5.4 mph8.7 kmh 30.54 in1034.2 mb 0.00 in0.0 mm 0.00 in0.0 mm 0.39 in9.9 mm
03:30 PM 61.0°F16.1°C 55.8°F13.2°C 83% 2.2 mph SSW3.5 kmh SSW 5.4 mph8.7 kmh 30.55 in1034.5 mb 0.00 in0.0 mm 0.00 in0.0 mm 0.39 in9.9 mm
03:40 PM 61.0°F16.1°C 55.8°F13.2°C 83% 3.1 mph SW5.0 kmh SW 5.4 mph8.7 kmh 30.10 in1019.3 mb 0.00 in0.0 mm 0.00 in0.0 mm 0.40 in10.2 mm
03:45 PM 60.6°F15.9°C 55.4°F13.0°C 83% 3.8 mph SSW6.1 kmh SSW 9.2 mph14.8 kmh 30.54 in1034.2 mb 0.00 in0.0 mm 0.00 in0.0 mm 0.39 in9.9 mm
04:00 PM 60.6°F15.9°C 55.1°F12.8°C 82% 1.6 mph SSW2.6 kmh SSW 6.0 mph9.7 kmh 30.54 in1034.2 mb 0.00 in0.0 mm 0.00 in0.0 mm 0.39 in9.9 mm
04:10 PM 60.6°F15.9°C 55.1°F12.8°C 82% 0.7 mph SW1.1 kmh SW 1.6 mph2.6 kmh 30.10 in1019.3 mb 0.00 in0.0 mm 0.00 in0.0 mm 0.40 in10.2 mm
04:15 PM 60.8°F16.0°C 55.3°F12.9°C 82% 0.7 mph SW1.1 kmh SW 4.5 mph7.2 kmh 30.53 in1033.9 mb 0.00 in0.0 mm 0.00 in0.0 mm 0.39 in9.9 mm
04:30 PM 60.8°F16.0°C 55.3°F12.9°C 82% 3.1 mph SW5.0 kmh SW 4.5 mph7.2 kmh 30.54 in1034.2 mb 0.00 in0.0 mm 0.00 in0.0 mm 0.39 in9.9 mm
04:40 PM 60.8°F16.0°C 54.9°F12.7°C 81% 3.1 mph SW5.0 kmh SW 3.8 mph6.1 kmh 30.10 in1019.3 mb 0.00 in0.0 mm 0.00 in0.0 mm 0.40 in10.2 mm
04:45 PM 60.8°F16.0°C 54.9°F12.7°C 81% 1.6 mph SW2.6 kmh SW 1.6 mph2.6 kmh 30.55 in1034.5 mb 0.00 in0.0 mm 0.00 in0.0 mm 0.39 in9.9 mm
05:00 PM 60.8°F16.0°C 54.9°F12.7°C 81% 1.6 mph SSW2.6 kmh SSW 6.0 mph9.7 kmh 30.55 in1034.5 mb 0.00 in0.0 mm 0.00 in0.0 mm 0.39 in9.9 mm
05:10 PM 60.8°F16.0°C 54.9°F12.7°C 81% 0.7 mph SW1.1 kmh SW 1.6 mph2.6 kmh 30.11 in1019.6 mb 0.00 in0.0 mm 0.00 in0.0 mm 0.40 in10.2 mm
05:15 PM 60.6°F15.9°C 54.8°F12.7°C 81% 0.7 mph SSW1.1 kmh SSW 3.1 mph5.0 kmh 30.55 in1034.5 mb 0.00 in0.0 mm 0.00 in0.0 mm 0.39 in9.9 mm
05:30 PM 60.6°F15.9°C 54.8°F12.7°C 81% 1.6 mph S2.6 kmh S 5.4 mph8.7 kmh 30.56 in1034.9 mb 0.00 in0.0 mm 0.00 in0.0 mm 0.39 in9.9 mm
05:40 PM 60.6°F15.9°C 54.8°F12.7°C 81% 1.6 mph S2.6 kmh S 2.2 mph3.5 kmh 30.12 in1020.0 mb 0.00 in0.0 mm 0.00 in0.0 mm 0.40 in10.2 mm
05:45 PM 60.6°F15.9°C 55.1°F12.8°C 82% 1.6 mph S2.6 kmh S 3.1 mph5.0 kmh 30.56 in1034.9 mb 0.00 in0.0 mm 0.00 in0.0 mm 0.39 in9.9 mm
06:00 PM 60.4°F15.8°C 54.6°F12.6°C 81% 0.7 mph S1.1 kmh S 4.5 mph7.2 kmh 30.57 in1035.2 mb 0.00 in0.0 mm 0.00 in0.0 mm 0.39 in9.9 mm
06:10 PM 60.4°F15.8°C 54.6°F12.6°C 81% 1.6 mph SW2.6 kmh SW 2.2 mph3.5 kmh 30.12 in1020.0 mb 0.00 in0.0 mm 0.00 in0.0 mm 0.40 in10.2 mm
06:15 PM 60.4°F15.8°C 54.6°F12.6°C 81% 0.7 mph S1.1 kmh S 3.1 mph5.0 kmh 30.55 in1034.5 mb 0.00 in0.0 mm 0.00 in0.0 mm 0.39 in9.9 mm
06:30 PM 60.4°F15.8°C 54.6°F12.6°C 81% 1.6 mph S2.6 kmh S 2.2 mph3.5 kmh 30.56 in1034.9 mb 0.00 in0.0 mm 0.00 in0.0 mm 0.39 in9.9 mm
06:40 PM 60.4°F15.8°C 54.6°F12.6°C 81% 1.6 mph S2.6 kmh S 2.2 mph3.5 kmh 30.12 in1020.0 mb 0.00 in0.0 mm 0.00 in0.0 mm 0.40 in10.2 mm
06:45 PM 60.3°F15.7°C 54.7°F12.6°C 82% 0.7 mph S1.1 kmh S 3.1 mph5.0 kmh 30.57 in1035.2 mb 0.00 in0.0 mm 0.00 in0.0 mm 0.39 in9.9 mm
07:00 PM 60.3°F15.7°C 54.7°F12.6°C 82% Calm Calm 1.6 mph2.6 kmh 30.57 in1035.2 mb 0.00 in0.0 mm 0.00 in0.0 mm 0.39 in9.9 mm
07:10 PM 60.3°F15.7°C 54.7°F12.6°C 82% Calm Calm 0.7 mph1.1 kmh 30.13 in1020.3 mb 0.00 in0.0 mm 0.00 in0.0 mm 0.40 in10.2 mm
07:15 PM 60.1°F15.6°C 54.9°F12.7°C 83% 2.2 mph SW3.5 kmh SW 3.1 mph5.0 kmh 30.56 in1034.9 mb 0.00 in0.0 mm 0.00 in0.0 mm 0.39 in9.9 mm
07:30 PM 59.9°F15.5°C 55.1°F12.8°C 84% Calm Calm 1.6 mph2.6 kmh 30.57 in1035.2 mb 0.00 in0.0 mm 0.00 in0.0 mm 0.39 in9.9 mm
07:40 PM 59.9°F15.5°C 55.1°F12.8°C 84% Calm Calm -- 30.13 in1020.3 mb 0.00 in0.0 mm 0.00 in0.0 mm 0.40 in10.2 mm
07:45 PM 59.7°F15.4°C 54.9°F12.7°C 84% Calm Calm 2.2 mph3.5 kmh 30.57 in1035.2 mb 0.00 in0.0 mm 0.00 in0.0 mm 0.39 in9.9 mm
08:00 PM 59.5°F15.3°C 55.0°F12.8°C 85% 0.7 mph S1.1 kmh S 1.6 mph2.6 kmh 30.57 in1035.2 mb 0.00 in0.0 mm 0.00 in0.0 mm 0.39 in9.9 mm
08:10 PM 59.5°F15.3°C 55.0°F12.8°C 85% 1.6 mph SW2.6 kmh SW 1.6 mph2.6 kmh 30.11 in1019.6 mb 0.00 in0.0 mm 0.00 in0.0 mm 0.40 in10.2 mm
08:15 PM 59.4°F15.2°C 55.2°F12.9°C 86% 3.1 mph NW5.0 kmh NW 5.4 mph8.7 kmh 30.57 in1035.2 mb 0.00 in0.0 mm 0.00 in0.0 mm 0.39 in9.9 mm
08:30 PM 59.0°F15.0°C 54.8°F12.7°C 86% 3.1 mph N5.0 kmh N 4.5 mph7.2 kmh 30.55 in1034.5 mb 0.00 in0.0 mm 0.00 in0.0 mm 0.39 in9.9 mm
08:40 PM 59.0°F15.0°C 54.8°F12.7°C 86% 2.2 mph N3.5 kmh N 3.1 mph5.0 kmh 30.11 in1019.6 mb 0.00 in0.0 mm 0.00 in0.0 mm 0.40 in10.2 mm
08:45 PM 58.8°F14.9°C 54.6°F12.6°C 86% 2.2 mph N3.5 kmh N 3.8 mph6.1 kmh 30.56 in1034.9 mb 0.00 in0.0 mm 0.00 in0.0 mm 0.39 in9.9 mm
09:00 PM 58.5°F14.7°C 54.6°F12.6°C 87% 0.7 mph N1.1 kmh N 6.9 mph11.1 kmh 30.55 in1034.5 mb 0.00 in0.0 mm 0.00 in0.0 mm 0.39 in9.9 mm
09:10 PM 58.5°F14.7°C 54.6°F12.6°C 87% 1.6 mph N2.6 kmh N 2.2 mph3.5 kmh 30.10 in1019.3 mb 0.00 in0.0 mm 0.00 in0.0 mm 0.40 in10.2 mm
09:15 PM 57.9°F14.4°C 54.1°F12.3°C 87% 2.2 mph N3.5 kmh N 6.0 mph9.7 kmh 30.54 in1034.2 mb 0.00 in0.0 mm 0.00 in0.0 mm 0.39 in9.9 mm
09:30 PM 57.4°F14.1°C 53.5°F11.9°C 87% 1.6 mph N2.6 kmh N 2.2 mph3.5 kmh 30.55 in1034.5 mb 0.00 in0.0 mm 0.00 in0.0 mm 0.39 in9.9 mm
09:40 PM 57.4°F14.1°C 53.5°F11.9°C 87% 0.7 mph N1.1 kmh N 1.6 mph2.6 kmh 30.11 in1019.6 mb 0.00 in0.0 mm 0.00 in0.0 mm 0.40 in10.2 mm
09:45 PM 57.0°F13.9°C 53.2°F11.8°C 87% 1.6 mph N2.6 kmh N 3.1 mph5.0 kmh 30.54 in1034.2 mb 0.00 in0.0 mm 0.00 in0.0 mm 0.39 in9.9 mm
10:00 PM 57.0°F13.9°C 53.5°F11.9°C 88% 1.6 mph N2.6 kmh N 3.1 mph5.0 kmh 30.54 in1034.2 mb 0.00 in0.0 mm 0.00 in0.0 mm 0.39 in9.9 mm
10:10 PM 57.0°F13.9°C 53.8°F12.1°C 89% 2.2 mph N3.5 kmh N 3.1 mph5.0 kmh 30.10 in1019.3 mb 0.00 in0.0 mm 0.00 in0.0 mm 0.40 in10.2 mm
10:15 PM 57.0°F13.9°C 54.1°F12.3°C 90% 3.8 mph NE6.1 kmh NE 5.4 mph8.7 kmh 30.54 in1034.2 mb 0.00 in0.0 mm 0.00 in0.0 mm 0.39 in9.9 mm
10:30 PM 57.2°F14.0°C 54.3°F12.4°C 90% 6.9 mph NE11.1 kmh NE 9.2 mph14.8 kmh 30.53 in1033.9 mb 0.00 in0.0 mm 0.00 in0.0 mm 0.39 in9.9 mm
10:40 PM 57.2°F14.0°C 54.3°F12.4°C 90% 4.5 mph NE7.2 kmh NE 5.4 mph8.7 kmh 30.09 in1019.0 mb 0.00 in0.0 mm 0.00 in0.0 mm 0.40 in10.2 mm
10:45 PM 57.4°F14.1°C 54.8°F12.7°C 91% 2.2 mph NNE3.5 kmh NNE 10.7 mph17.2 kmh 30.53 in1033.9 mb 0.00 in0.0 mm 0.00 in0.0 mm 0.39 in9.9 mm
11:00 PM 57.4°F14.1°C 54.8°F12.7°C 91% 2.2 mph NE3.5 kmh NE 4.5 mph7.2 kmh 30.53 in1033.9 mb 0.00 in0.0 mm 0.00 in0.0 mm 0.20 in5.1 mm
11:10 PM 57.4°F14.1°C 54.8°F12.7°C 91% 2.2 mph E3.5 kmh E 3.1 mph5.0 kmh 30.09 in1019.0 mb 0.00 in0.0 mm 0.00 in0.0 mm 0.20 in5.1 mm
11:15 PM 57.2°F14.0°C 54.6°F12.6°C 91% 2.2 mph NE3.5 kmh NE 3.8 mph6.1 kmh 30.53 in1033.9 mb 0.00 in0.0 mm 0.00 in0.0 mm 0.20 in5.1 mm
11:30 PM 56.8°F13.8°C 54.2°F12.3°C 91% 1.6 mph NE2.6 kmh NE 3.1 mph5.0 kmh 30.53 in1033.9 mb 0.00 in0.0 mm 0.00 in0.0 mm 0.20 in5.1 mm
11:40 PM 56.8°F13.8°C 54.2°F12.3°C 91% 2.2 mph NE3.5 kmh NE 3.1 mph5.0 kmh 30.08 in1018.6 mb 0.00 in0.0 mm 0.00 in0.0 mm 0.20 in5.1 mm
11:45 PM 56.7°F13.7°C 54.1°F12.3°C 91% 1.6 mph NE2.6 kmh NE 3.1 mph5.0 kmh 30.53 in1033.9 mb 0.00 in0.0 mm 0.00 in0.0 mm 0.20 in5.1 mm